Time;durP1;ratioP1;P1;durP2;ratioP2;P2;SDS_P1;SDS_P2;PMS_P1;PMS_P2;Temp;Humidity;BMP_temperature;BMP_pressure;BME280_temperature;BME280_humidity;BME280_pressure;Samples;Min_cycle;Max_cycle;Signal;HPM_P1;HPM_P2
2022/03/26 00:00:08;;;;;;;48.93;21.13;;;;;;;;;;5016186;28;20040;-73
2022/03/26 00:02:35;;;;;;;39.67;22.17;;;;;;;;;;5016244;28;20034;-73
2022/03/26 00:05:02;;;;;;;55.47;23.73;;;;;;;;;;5015027;28;20034;-74
2022/03/26 00:07:28;;;;;;;50.07;21.23;;;;;;;;;;5015108;28;20033;-74
2022/03/26 00:09:54;;;;;;;53.63;21.47;;;;;;;;;;5013897;28;20399;-73
2022/03/26 00:12:21;;;;;;;47.43;21.47;;;;;;;;;;5015803;28;20064;-72
2022/03/26 00:14:47;;;;;;;58.67;24.47;;;;;;;;;;5020275;28;20140;-73
2022/03/26 00:17:13;;;;;;;60.90;23.07;;;;;;;;;;5019571;28;20041;-73
2022/03/26 00:19:39;;;;;;;48.67;21.87;;;;;;;;;;5015900;28;20041;-72
2022/03/26 00:22:05;;;;;;;50.43;22.17;;;;;;;;;;5020116;28;20032;-73
2022/03/26 00:24:31;;;;;;;56.73;22.40;;;;;;;;;;5014635;28;20022;-73
2022/03/26 00:26:58;;;;;;;48.77;23.23;;;;;;;;;;5015472;28;20084;-74
2022/03/26 00:29:24;;;;;;;54.23;21.67;;;;;;;;;;5016148;28;20029;-74
2022/03/26 00:31:50;;;;;;;43.47;20.37;;;;;;;;;;5016664;28;20018;-73
2022/03/26 00:34:16;;;;;;;58.93;23.30;;;;;;;;;;5019726;28;20461;-74
2022/03/26 00:36:42;;;;;;;52.33;23.20;;;;;;;;;;5017399;28;20042;-75
2022/03/26 00:39:08;;;;;;;57.03;22.60;;;;;;;;;;5015182;28;20087;-73
2022/03/26 00:41:35;;;;;;;60.10;23.60;;;;;;;;;;5016919;28;20533;-74
2022/03/26 00:44:02;;;;;;;56.57;21.93;;;;;;;;;;5018812;28;20394;-74
2022/03/26 00:46:28;;;;;;;56.67;23.30;;;;;;;;;;5020058;28;20078;-73
2022/03/26 00:48:56;;;;;;;52.23;22.47;;;;;;;;;;5018579;28;20405;-73
2022/03/26 00:51:22;;;;;;;55.63;22.17;;;;;;;;;;5020039;28;20466;-74
2022/03/26 00:53:48;;;;;;;62.33;23.60;;;;;;;;;;5018941;28;20022;-73
2022/03/26 00:56:15;;;;;;;51.03;22.10;;;;;;;;;;5014114;28;20029;-74
2022/03/26 00:58:41;;;;;;;56.87;21.80;;;;;;;;;;5015317;28;20036;-73
2022/03/26 01:01:08;;;;;;;59.70;22.47;;;;;;;;;;5014884;28;20056;-73
2022/03/26 01:03:34;;;;;;;56.47;21.20;;;;;;;;;;5014934;28;20060;-73
2022/03/26 01:06:00;;;;;;;43.43;21.67;;;;;;;;;;5017580;28;20365;-74
2022/03/26 01:08:26;;;;;;;59.80;24.33;;;;;;;;;;5014420;28;20021;-73
2022/03/26 01:10:52;;;;;;;55.17;24.27;;;;;;;;;;5014190;28;20079;-73
2022/03/26 01:13:18;;;;;;;54.27;21.93;;;;;;;;;;5019165;28;20038;-73
2022/03/26 01:15:45;;;;;;;53.03;22.30;;;;;;;;;;5016863;28;20029;-74
2022/03/26 01:18:11;;;;;;;52.97;22.27;;;;;;;;;;5017089;28;20049;-73
2022/03/26 01:20:37;;;;;;;57.30;23.57;;;;;;;;;;5019795;28;20175;-74
2022/03/26 01:23:03;;;;;;;59.97;23.13;;;;;;;;;;5015844;28;20029;-73
2022/03/26 01:25:28;;;;;;;45.60;21.33;;;;;;;;;;5015188;28;20041;-72
2022/03/26 01:27:54;;;;;;;48.27;21.70;;;;;;;;;;5019644;28;20406;-73
2022/03/26 01:30:20;;;;;;;61.30;24.07;;;;;;;;;;5020008;28;20025;-73
2022/03/26 01:32:46;;;;;;;58.87;21.63;;;;;;;;;;5019379;28;20025;-72
2022/03/26 01:35:12;;;;;;;63.23;22.47;;;;;;;;;;5020505;28;20029;-74
2022/03/26 01:37:38;;;;;;;47.63;21.80;;;;;;;;;;5002988;28;20030;-73
2022/03/26 01:40:05;;;;;;;49.80;21.50;;;;;;;;;;5020394;28;20052;-72
2022/03/26 01:42:31;;;;;;;57.30;23.43;;;;;;;;;;5019210;28;20475;-74
2022/03/26 01:44:57;;;;;;;58.50;23.87;;;;;;;;;;5019068;28;20539;-74
2022/03/26 01:47:23;;;;;;;52.50;23.27;;;;;;;;;;5018501;28;20029;-72
2022/03/26 01:49:50;;;;;;;61.97;22.63;;;;;;;;;;5019230;28;20112;-74
2022/03/26 01:52:16;;;;;;;59.27;22.93;;;;;;;;;;5023451;28;20494;-74
2022/03/26 01:54:43;;;;;;;53.73;21.70;;;;;;;;;;5015364;28;20045;-72
2022/03/26 01:57:10;;;;;;;54.27;22.33;;;;;;;;;;5019837;28;20084;-74
2022/03/26 01:59:38;;;;;;;59.77;21.70;;;;;;;;;;5023366;28;20021;-72
2022/03/26 02:02:05;;;;;;;53.97;22.63;;;;;;;;;;5018207;28;20065;-73
2022/03/26 02:04:30;;;;;;;51.57;22.53;;;;;;;;;;5002696;28;20241;-72
2022/03/26 02:06:56;;;;;;;58.07;23.17;;;;;;;;;;5018917;28;20481;-72
2022/03/26 02:09:22;;;;;;;53.10;23.70;;;;;;;;;;5016362;28;20080;-73
2022/03/26 02:11:47;;;;;;;50.60;23.33;;;;;;;;;;5020286;28;20026;-73
2022/03/26 02:14:14;;;;;;;51.40;22.67;;;;;;;;;;5022460;28;20047;-73
2022/03/26 02:16:43;;;;;;;61.17;23.67;;;;;;;;;;5021944;28;20436;-73
2022/03/26 02:19:10;;;;;;;54.57;22.27;;;;;;;;;;5019171;28;20021;-73
2022/03/26 02:21:37;;;;;;;55.87;21.57;;;;;;;;;;5021811;28;20034;-73
2022/03/26 02:24:06;;;;;;;64.87;23.37;;;;;;;;;;5019686;28;20069;-73
2022/03/26 02:26:32;;;;;;;47.47;21.40;;;;;;;;;;5019608;28;20128;-73
2022/03/26 02:29:05;;;;;;;52.47;22.17;;;;;;;;;;5019215;28;20022;-73
2022/03/26 02:31:30;;;;;;;51.87;21.67;;;;;;;;;;5020941;28;20031;-73
2022/03/26 02:33:56;;;;;;;53.10;22.17;;;;;;;;;;5022308;28;20049;-73
2022/03/26 02:36:21;;;;;;;53.03;22.20;;;;;;;;;;5017198;28;20030;-72
2022/03/26 02:38:47;;;;;;;56.40;23.53;;;;;;;;;;5018573;28;20026;-73
2022/03/26 02:41:12;;;;;;;49.07;22.00;;;;;;;;;;5020446;28;20545;-73
2022/03/26 02:43:38;;;;;;;57.97;23.47;;;;;;;;;;5018591;28;20045;-73
2022/03/26 02:46:04;;;;;;;62.07;22.77;;;;;;;;;;5024088;28;20029;-73
2022/03/26 02:48:31;;;;;;;56.23;22.03;;;;;;;;;;5018700;28;20022;-73
2022/03/26 02:50:57;;;;;;;56.47;22.47;;;;;;;;;;5019989;28;20033;-72
2022/03/26 02:53:23;;;;;;;57.87;22.47;;;;;;;;;;5015343;28;20156;-73
2022/03/26 02:55:48;;;;;;;52.70;21.13;;;;;;;;;;5018304;28;20397;-74
2022/03/26 02:58:14;;;;;;;49.90;21.30;;;;;;;;;;5018017;28;20025;-72
2022/03/26 03:00:39;;;;;;;51.33;22.20;;;;;;;;;;5021355;28;20389;-73
2022/03/26 03:03:08;;;;;;;56.73;22.37;;;;;;;;;;5018443;28;20488;-72
2022/03/26 03:05:34;;;;;;;52.70;22.10;;;;;;;;;;5019742;28;20393;-72
2022/03/26 03:08:01;;;;;;;46.07;21.13;;;;;;;;;;5002806;28;20494;-72
2022/03/26 03:10:27;;;;;;;56.20;23.03;;;;;;;;;;5020485;28;20026;-72
2022/03/26 03:12:53;;;;;;;54.40;24.03;;;;;;;;;;5018429;28;20025;-72
2022/03/26 03:15:19;;;;;;;54.60;23.97;;;;;;;;;;5018161;28;20083;-74
2022/03/26 03:17:46;;;;;;;51.73;22.90;;;;;;;;;;5018121;28;20045;-72
2022/03/26 03:20:14;;;;;;;64.63;22.33;;;;;;;;;;5018143;28;20053;-72
2022/03/26 03:22:42;;;;;;;57.97;21.87;;;;;;;;;;5019010;28;20017;-72
2022/03/26 03:25:08;;;;;;;46.47;21.33;;;;;;;;;;5019219;28;20030;-73
2022/03/26 03:27:36;;;;;;;55.97;22.47;;;;;;;;;;5017235;28;20033;-72
2022/03/26 03:30:03;;;;;;;48.60;21.87;;;;;;;;;;5020940;28;20425;-72
2022/03/26 03:32:29;;;;;;;57.13;23.23;;;;;;;;;;5018816;28;20453;-73
2022/03/26 03:34:54;;;;;;;59.90;23.37;;;;;;;;;;5019292;28;20072;-71
2022/03/26 03:37:20;;;;;;;56.17;23.30;;;;;;;;;;5019321;28;20028;-71
2022/03/26 03:39:46;;;;;;;53.43;23.00;;;;;;;;;;5018464;28;20033;-72
2022/03/26 03:42:11;;;;;;;55.67;22.70;;;;;;;;;;5019768;28;20030;-72
2022/03/26 03:44:37;;;;;;;53.43;22.57;;;;;;;;;;5019241;28;20029;-72
2022/03/26 03:47:03;;;;;;;51.93;22.50;;;;;;;;;;5019062;28;20475;-73
2022/03/26 03:49:31;;;;;;;48.27;22.27;;;;;;;;;;5015085;28;20030;-71
2022/03/26 03:51:58;;;;;;;47.50;21.53;;;;;;;;;;5022569;28;20029;-72
2022/03/26 03:54:24;;;;;;;75.17;24.63;;;;;;;;;;5016159;28;20030;-72
2022/03/26 03:56:49;;;;;;;55.23;22.50;;;;;;;;;;5022498;28;20512;-71
2022/03/26 03:59:15;;;;;;;53.30;23.27;;;;;;;;;;5016428;28;20051;-73
2022/03/26 04:01:41;;;;;;;61.80;25.20;;;;;;;;;;5018715;28;20036;-72
2022/03/26 04:04:07;;;;;;;52.93;22.30;;;;;;;;;;5016081;28;20029;-71
2022/03/26 04:06:32;;;;;;;64.93;22.80;;;;;;;;;;5016273;28;20412;-72
2022/03/26 04:08:58;;;;;;;58.10;23.03;;;;;;;;;;5016056;28;20031;-72
2022/03/26 04:11:23;;;;;;;59.37;22.60;;;;;;;;;;5018006;28;20026;-72
2022/03/26 04:13:53;;;;;;;56.67;22.77;;;;;;;;;;5017595;28;20512;-73
2022/03/26 04:16:19;;;;;;;51.87;21.80;;;;;;;;;;5021939;28;20113;-73
2022/03/26 04:18:45;;;;;;;57.03;21.77;;;;;;;;;;5018009;28;20549;-72
2022/03/26 04:21:10;;;;;;;63.10;22.33;;;;;;;;;;5018470;28;20116;-73
2022/03/26 04:23:37;;;;;;;47.60;22.20;;;;;;;;;;5017704;28;20025;-72
2022/03/26 04:26:02;;;;;;;50.47;22.57;;;;;;;;;;5016647;28;20038;-72
2022/03/26 04:28:28;;;;;;;50.83;22.10;;;;;;;;;;5020848;28;20127;-72
2022/03/26 04:30:54;;;;;;;58.50;23.77;;;;;;;;;;5018031;28;20051;-73
2022/03/26 04:33:19;;;;;;;53.47;20.07;;;;;;;;;;5020390;28;20515;-73
2022/03/26 04:35:44;;;;;;;56.07;22.30;;;;;;;;;;5017173;28;20121;-73
2022/03/26 04:38:10;;;;;;;57.80;21.57;;;;;;;;;;5014285;28;20037;-73
2022/03/26 04:40:35;;;;;;;57.97;23.20;;;;;;;;;;5015066;28;20021;-73
2022/03/26 04:43:01;;;;;;;51.20;24.27;;;;;;;;;;5018030;28;20033;-73
2022/03/26 04:45:28;;;;;;;55.43;22.27;;;;;;;;;;5019337;28;20068;-73
2022/03/26 04:47:54;;;;;;;50.70;21.67;;;;;;;;;;5019565;28;20025;-72
2022/03/26 04:50:19;;;;;;;54.60;21.37;;;;;;;;;;5020574;28;20095;-71
2022/03/26 04:52:45;;;;;;;51.30;21.40;;;;;;;;;;5018929;28;20063;-71
2022/03/26 04:55:11;;;;;;;58.67;23.23;;;;;;;;;;5017597;28;20022;-72
2022/03/26 04:57:44;;;;;;;50.13;21.97;;;;;;;;;;5017580;28;20453;-71
2022/03/26 05:00:12;;;;;;;56.53;20.07;;;;;;;;;;5017164;28;20033;-72
2022/03/26 05:02:39;;;;;;;56.27;23.37;;;;;;;;;;5020454;28;20474;-73
2022/03/26 05:05:06;;;;;;;56.33;22.23;;;;;;;;;;5016028;28;20053;-72
2022/03/26 05:07:46;;;;;;;55.37;22.77;;;;;;;;;;5018322;28;20493;-72
2022/03/26 05:10:21;;;;;;;56.50;24.33;;;;;;;;;;5018578;28;20026;-72
2022/03/26 05:12:48;;;;;;;42.73;19.87;;;;;;;;;;5019505;28;20033;-73
2022/03/26 05:15:14;;;;;;;61.00;22.47;;;;;;;;;;5021356;28;20033;-72
2022/03/26 05:17:41;;;;;;;57.43;21.63;;;;;;;;;;5023909;28;20025;-72
2022/03/26 05:20:08;;;;;;;46.17;20.87;;;;;;;;;;5024080;28;20426;-72
2022/03/26 05:22:35;;;;;;;59.67;22.70;;;;;;;;;;5021445;28;20033;-73
2022/03/26 05:25:01;;;;;;;49.07;23.67;;;;;;;;;;5020279;28;20033;-71
2022/03/26 05:27:27;;;;;;;61.73;21.63;;;;;;;;;;5020415;28;20431;-73
2022/03/26 05:29:53;;;;;;;51.30;20.87;;;;;;;;;;5021027;28;20057;-71
2022/03/26 05:32:19;;;;;;;52.67;21.17;;;;;;;;;;5023293;28;20025;-73
2022/03/26 05:34:44;;;;;;;52.10;20.80;;;;;;;;;;5020829;28;20030;-72
2022/03/26 05:37:10;;;;;;;54.67;21.17;;;;;;;;;;5020886;28;20033;-73
2022/03/26 05:39:36;;;;;;;56.03;21.93;;;;;;;;;;5020493;28;20034;-73
2022/03/26 05:42:02;;;;;;;48.57;21.43;;;;;;;;;;5023119;28;20029;-71
2022/03/26 05:44:27;;;;;;;45.83;21.20;;;;;;;;;;5020437;28;20151;-72
2022/03/26 05:46:53;;;;;;;45.63;19.53;;;;;;;;;;5021587;28;20032;-72
2022/03/26 05:49:21;;;;;;;44.07;20.30;;;;;;;;;;5022351;28;20393;-72
2022/03/26 05:51:47;;;;;;;57.10;21.50;;;;;;;;;;5020492;28;20033;-73
2022/03/26 05:54:13;;;;;;;56.93;22.37;;;;;;;;;;5019377;28;20033;-72
2022/03/26 05:56:39;;;;;;;48.77;20.70;;;;;;;;;;5021155;28;20124;-72
2022/03/26 05:59:06;;;;;;;61.57;21.43;;;;;;;;;;5018550;28;20235;-73
2022/03/26 06:01:32;;;;;;;51.40;21.97;;;;;;;;;;5021201;28;20057;-73
2022/03/26 06:03:59;;;;;;;46.23;20.50;;;;;;;;;;5022679;28;20053;-72
2022/03/26 06:06:25;;;;;;;51.53;21.30;;;;;;;;;;5021756;28;20037;-73
2022/03/26 06:08:51;;;;;;;54.90;22.10;;;;;;;;;;5018975;28;20025;-73
2022/03/26 06:11:17;;;;;;;49.47;22.00;;;;;;;;;;5022358;28;20033;-72
2022/03/26 06:13:43;;;;;;;58.37;20.87;;;;;;;;;;5021657;28;20038;-72
2022/03/26 06:16:09;;;;;;;54.23;21.37;;;;;;;;;;5018574;28;20384;-73
2022/03/26 06:18:34;;;;;;;48.37;21.33;;;;;;;;;;5005927;28;20127;-72
2022/03/26 06:21:05;;;;;;;54.17;20.90;;;;;;;;;;5018828;28;20079;-72
2022/03/26 06:23:34;;;;;;;57.30;22.67;;;;;;;;;;5017470;28;20516;-72
2022/03/26 06:25:59;;;;;;;56.03;19.63;;;;;;;;;;5021077;28;20041;-73
2022/03/26 06:28:25;;;;;;;54.83;22.50;;;;;;;;;;5020148;28;20172;-73
2022/03/26 06:30:51;;;;;;;55.80;21.97;;;;;;;;;;5019418;28;20143;-72
2022/03/26 06:33:18;;;;;;;56.40;20.33;;;;;;;;;;5020861;28;20040;-73
2022/03/26 06:35:44;;;;;;;55.37;22.90;;;;;;;;;;5017853;28;20140;-73
2022/03/26 06:38:10;;;;;;;53.03;21.97;;;;;;;;;;5021173;28;20037;-72
2022/03/26 06:40:37;;;;;;;52.43;19.83;;;;;;;;;;5020052;28;20400;-73
2022/03/26 06:43:04;;;;;;;55.17;22.90;;;;;;;;;;5018667;28;20611;-72
2022/03/26 06:45:30;;;;;;;57.37;26.77;;;;;;;;;;5018781;28;20125;-72
2022/03/26 06:47:55;;;;;;;55.00;22.13;;;;;;;;;;5020029;28;20480;-73
2022/03/26 06:50:21;;;;;;;54.73;22.70;;;;;;;;;;5020941;28;20037;-72
2022/03/26 06:52:46;;;;;;;42.57;20.53;;;;;;;;;;5015382;28;20041;-73
2022/03/26 06:55:12;;;;;;;50.87;20.53;;;;;;;;;;5019976;28;20029;-73
2022/03/26 06:57:38;;;;;;;45.97;19.80;;;;;;;;;;5021153;28;20033;-72
2022/03/26 07:00:05;;;;;;;55.63;22.83;;;;;;;;;;5018527;28;20474;-73
2022/03/26 07:02:31;;;;;;;51.10;22.53;;;;;;;;;;5023303;28;20132;-73
2022/03/26 07:04:57;;;;;;;51.53;19.97;;;;;;;;;;5019940;28;20132;-73
2022/03/26 07:07:23;;;;;;;53.97;20.90;;;;;;;;;;5022762;28;20025;-72
2022/03/26 07:09:48;;;;;;;51.70;20.47;;;;;;;;;;5005219;28;20041;-73
2022/03/26 07:12:14;;;;;;;50.37;20.63;;;;;;;;;;5019804;28;20025;-72
2022/03/26 07:14:39;;;;;;;55.53;21.90;;;;;;;;;;5020061;28;20504;-72
2022/03/26 07:17:05;;;;;;;48.77;21.43;;;;;;;;;;5020039;28;20465;-71
2022/03/26 07:19:31;;;;;;;53.43;21.33;;;;;;;;;;5022926;28;20033;-73
2022/03/26 07:21:57;;;;;;;46.00;20.50;;;;;;;;;;5022028;28;20075;-72
2022/03/26 07:24:22;;;;;;;47.23;22.80;;;;;;;;;;5023726;28;20378;-71
2022/03/26 07:26:48;;;;;;;51.87;21.27;;;;;;;;;;5018000;28;20057;-73
2022/03/26 07:29:13;;;;;;;43.13;20.27;;;;;;;;;;5015878;28;20034;-73
2022/03/26 07:31:40;;;;;;;47.53;21.30;;;;;;;;;;5015412;28;20040;-73
2022/03/26 07:34:06;;;;;;;53.53;22.53;;;;;;;;;;5017961;28;20033;-71
2022/03/26 07:36:32;;;;;;;52.70;21.80;;;;;;;;;;5015620;28;20029;-72
2022/03/26 07:38:58;;;;;;;47.00;23.90;;;;;;;;;;5018099;28;20030;-74
2022/03/26 07:41:24;;;;;;;49.53;22.37;;;;;;;;;;5014577;28;20405;-73
2022/03/26 07:43:49;;;;;;;56.90;22.80;;;;;;;;;;5014549;28;20466;-73
2022/03/26 07:46:18;;;;;;;48.73;22.23;;;;;;;;;;5014630;28;20032;-73
2022/03/26 07:48:46;;;;;;;52.70;22.63;;;;;;;;;;5020317;28;20025;-74
2022/03/26 07:51:12;;;;;;;60.67;23.77;;;;;;;;;;5015884;28;20109;-73
2022/03/26 07:53:37;;;;;;;41.17;20.30;;;;;;;;;;5015244;28;20164;-73
2022/03/26 07:56:03;;;;;;;49.53;22.00;;;;;;;;;;5014551;28;20493;-73
2022/03/26 07:58:29;;;;;;;53.77;23.73;;;;;;;;;;5020126;28;20045;-74
2022/03/26 08:00:55;;;;;;;54.20;23.07;;;;;;;;;;5020955;28;20413;-73
2022/03/26 08:03:21;;;;;;;48.63;22.63;;;;;;;;;;5022889;28;20068;-73
2022/03/26 08:05:46;;;;;;;55.23;22.60;;;;;;;;;;5020678;28;20025;-73
2022/03/26 08:08:12;;;;;;;59.27;23.07;;;;;;;;;;5017890;28;20107;-73
2022/03/26 08:10:37;;;;;;;56.40;25.03;;;;;;;;;;5020923;28;20484;-73
2022/03/26 08:13:04;;;;;;;47.00;21.90;;;;;;;;;;5019072;28;20046;-74
2022/03/26 08:15:31;;;;;;;51.70;24.23;;;;;;;;;;5015135;28;20037;-73
2022/03/26 08:17:59;;;;;;;66.33;22.27;;;;;;;;;;5021588;28;20056;-74
2022/03/26 08:20:26;;;;;;;48.43;22.37;;;;;;;;;;5021678;28;20033;-73
2022/03/26 08:22:52;;;;;;;53.77;22.77;;;;;;;;;;5015625;28;20025;-74
2022/03/26 08:26:19;;;;;;;55.30;23.90;;;;;;;;;;5014187;28;20112;-73
2022/03/26 08:28:11;;;;;;;56.80;22.73;;;;;;;;;;5020909;28;20112;-72
2022/03/26 08:30:37;;;;;;;48.37;22.37;;;;;;;;;;5014387;28;20033;-74
2022/03/26 08:33:03;;;;;;;49.30;23.40;;;;;;;;;;5011570;28;20486;-74
2022/03/26 08:35:36;;;;;;;57.67;24.70;;;;;;;;;;5019388;28;20033;-74
2022/03/26 08:38:02;;;;;;;48.33;23.27;;;;;;;;;;5014284;28;20496;-73
2022/03/26 08:40:28;;;;;;;53.43;22.90;;;;;;;;;;5019143;28;20061;-73
2022/03/26 08:42:56;;;;;;;50.80;23.20;;;;;;;;;;5019476;28;20030;-72
2022/03/26 08:45:22;;;;;;;53.07;20.60;;;;;;;;;;5017293;28;20030;-74
2022/03/26 08:47:48;;;;;;;55.07;23.17;;;;;;;;;;5021799;28;20398;-73
2022/03/26 08:50:13;;;;;;;51.07;22.20;;;;;;;;;;5024875;28;20034;-73
2022/03/26 08:52:39;;;;;;;66.33;24.37;;;;;;;;;;5024428;28;20459;-73
2022/03/26 08:55:06;;;;;;;51.53;23.13;;;;;;;;;;5023875;28;20025;-73
2022/03/26 08:57:32;;;;;;;48.33;21.67;;;;;;;;;;5022715;28;20513;-73
2022/03/26 08:59:57;;;;;;;70.07;30.03;;;;;;;;;;5022318;28;20048;-73
2022/03/26 09:02:23;;;;;;;59.83;23.40;;;;;;;;;;5020406;28;20057;-73
2022/03/26 09:04:49;;;;;;;51.40;24.03;;;;;;;;;;5023611;28;20029;-73
2022/03/26 09:07:15;;;;;;;50.20;21.47;;;;;;;;;;5017431;28;20104;-73
2022/03/26 09:09:40;;;;;;;55.67;23.90;;;;;;;;;;5019741;28;20116;-74
2022/03/26 09:12:07;;;;;;;51.92;22.85;;;;;;;;;;5022787;28;20055;-73
2022/03/26 09:14:32;;;;;;;46.17;21.42;;;;;;;;;;5021995;28;20408;-73
2022/03/26 09:16:58;;;;;;;50.10;23.47;;;;;;;;;;5021745;28;20128;-73
2022/03/26 09:19:23;;;;;;;55.75;23.55;;;;;;;;;;5022601;28;20037;-74
2022/03/26 09:21:49;;;;;;;51.17;23.95;;;;;;;;;;5022240;28;20382;-73
2022/03/26 09:24:16;;;;;;;49.83;21.83;;;;;;;;;;5019475;28;20088;-74
2022/03/26 09:26:42;;;;;;;49.55;22.05;;;;;;;;;;5021112;28;20083;-74
2022/03/26 09:29:07;;;;;;;54.55;21.73;;;;;;;;;;5020864;28;20092;-74
2022/03/26 09:31:33;;;;;;;45.80;20.85;;;;;;;;;;5019803;28;20037;-73
2022/03/26 09:33:59;;;;;;;47.13;20.23;;;;;;;;;;5019730;28;20038;-71
2022/03/26 09:36:24;;;;;;;44.97;19.50;;;;;;;;;;5021973;28;20037;-74
2022/03/26 09:38:50;;;;;;;42.42;20.52;;;;;;;;;;5020688;28;20036;-74
2022/03/26 09:41:16;;;;;;;42.33;20.58;;;;;;;;;;5018307;28;20037;-74
2022/03/26 09:43:42;;;;;;;47.42;21.20;;;;;;;;;;5021096;28;20513;-74
2022/03/26 09:46:10;;;;;;;46.10;19.73;;;;;;;;;;5021893;28;20474;-73
2022/03/26 09:48:37;;;;;;;43.17;20.35;;;;;;;;;;5019058;28;20030;-73
2022/03/26 09:51:04;;;;;;;51.47;20.45;;;;;;;;;;5020107;28;20107;-74
2022/03/26 09:53:30;;;;;;;45.17;18.15;;;;;;;;;;5016529;28;20036;-72
2022/03/26 09:55:56;;;;;;;41.05;18.42;;;;;;;;;;5016235;28;20068;-73
2022/03/26 09:58:22;;;;;;;39.45;17.40;;;;;;;;;;5019253;28;20033;-73
2022/03/26 10:00:48;;;;;;;31.80;16.05;;;;;;;;;;5025786;28;20512;-74
2022/03/26 10:03:14;;;;;;;32.50;16.15;;;;;;;;;;5015568;28;20022;-74
2022/03/26 10:05:39;;;;;;;36.63;14.77;;;;;;;;;;5020755;28;20038;-74
2022/03/26 10:08:23;;;;;;;28.73;13.75;;;;;;;;;;5019349;28;20037;-74
2022/03/26 10:10:50;;;;;;;33.53;14.07;;;;;;;;;;5018188;28;20033;-74
2022/03/26 10:13:34;;;;;;;28.90;14.20;;;;;;;;;;5016043;28;20042;-74
2022/03/26 10:16:19;;;;;;;29.85;14.30;;;;;;;;;;5019605;28;20037;-74
2022/03/26 10:18:48;;;;;;;26.10;13.68;;;;;;;;;;5023613;28;20580;-74
2022/03/26 10:21:15;;;;;;;27.90;13.73;;;;;;;;;;5022982;28;20040;-74
2022/03/26 10:23:43;;;;;;;24.38;12.32;;;;;;;;;;5015903;28;20171;-73
2022/03/26 10:26:25;;;;;;;28.42;12.93;;;;;;;;;;5022767;28;20033;-73
2022/03/26 10:28:52;;;;;;;27.73;11.90;;;;;;;;;;5023479;28;20108;-73
2022/03/26 10:34:12;;;;;;;31.60;11.68;;;;;;;;;;5024591;28;20045;-73
2022/03/26 10:36:43;;;;;;;21.30;9.80;;;;;;;;;;5018896;28;20080;-73
2022/03/26 10:39:26;;;;;;;23.10;11.20;;;;;;;;;;5014736;28;20041;-73
2022/03/26 10:41:53;;;;;;;28.40;10.25;;;;;;;;;;5014519;28;20025;-72
2022/03/26 10:44:29;;;;;;;23.05;10.05;;;;;;;;;;5020886;28;20109;-73
2022/03/26 10:46:57;;;;;;;24.50;10.35;;;;;;;;;;5013792;28;20030;-73
2022/03/26 10:49:36;;;;;;;17.40;8.73;;;;;;;;;;5015657;28;20544;-72
2022/03/26 10:52:12;;;;;;;15.10;8.48;;;;;;;;;;5023941;28;20492;-73
2022/03/26 10:54:38;;;;;;;21.27;9.93;;;;;;;;;;5015809;28;20034;-73
2022/03/26 10:57:05;;;;;;;21.58;9.90;;;;;;;;;;5022050;28;20036;-74
2022/03/26 10:59:31;;;;;;;21.13;9.82;;;;;;;;;;5022441;28;20079;-73
2022/03/26 11:01:58;;;;;;;21.23;9.85;;;;;;;;;;5021834;28;20025;-74
2022/03/26 11:04:25;;;;;;;27.55;10.70;;;;;;;;;;5017254;28;20108;-75
2022/03/26 11:06:51;;;;;;;16.77;8.90;;;;;;;;;;5017344;28;20033;-74
2022/03/26 11:09:17;;;;;;;26.98;11.40;;;;;;;;;;5022485;28;20373;-74
2022/03/26 11:11:45;;;;;;;24.80;10.27;;;;;;;;;;5022775;28;20021;-74
2022/03/26 11:14:24;;;;;;;22.20;10.52;;;;;;;;;;5014872;28;20072;-74
2022/03/26 11:17:06;;;;;;;23.08;8.43;;;;;;;;;;5013823;28;20133;-74
2022/03/26 11:20:04;;;;;;;20.67;6.13;;;;;;;;;;5018258;28;20051;-74
2022/03/26 11:22:47;;;;;;;16.48;7.13;;;;;;;;;;5015778;28;20130;-73
2022/03/26 11:26:01;;;;;;;18.05;6.97;;;;;;;;;;5025093;28;20037;-73
2022/03/26 11:28:38;;;;;;;15.18;6.10;;;;;;;;;;5018797;28;20077;-73
2022/03/26 11:31:24;;;;;;;12.63;6.05;;;;;;;;;;5025767;28;20037;-74
2022/03/26 11:34:03;;;;;;;15.88;7.35;;;;;;;;;;5013628;28;20036;-75
2022/03/26 11:36:29;;;;;;;17.70;7.97;;;;;;;;;;5015142;28;20120;-74
2022/03/26 11:38:56;;;;;;;18.48;7.72;;;;;;;;;;5021237;28;20129;-74
2022/03/26 11:41:33;;;;;;;16.65;8.50;;;;;;;;;;5018511;28;20454;-74
2022/03/26 11:44:01;;;;;;;19.08;7.43;;;;;;;;;;5021826;28;20047;-73
2022/03/26 11:52:30;;;;;;;18.33;7.10;;;;;;;;;;5021540;28;20036;-74
2022/03/26 11:55:15;;;;;;;17.33;6.15;;;;;;;;;;5023509;28;20255;-72
2022/03/26 11:57:41;;;;;;;12.32;6.30;;;;;;;;;;5015465;28;20030;-74
2022/03/26 12:00:18;;;;;;;13.20;5.72;;;;;;;;;;5015826;28;20030;-75
2022/03/26 12:02:51;;;;;;;14.27;6.45;;;;;;;;;;5017912;28;20034;-75
2022/03/26 12:08:15;;;;;;;27.60;7.78;;;;;;;;;;5025150;28;20044;-74
2022/03/26 12:10:40;;;;;;;;;;;;;;;;;;5023745;28;20041;-73
2022/03/26 12:13:08;;;;;;;19.48;7.20;;;;;;;;;;5019443;28;19967;-74
2022/03/26 12:15:35;;;;;;;16.02;5.70;;;;;;;;;;5019561;28;20130;-74
2022/03/26 12:18:12;;;;;;;19.83;5.82;;;;;;;;;;5007168;28;20049;-74
2022/03/26 12:20:46;;;;;;;17.70;7.05;;;;;;;;;;5015869;28;20032;-74
2022/03/26 12:23:23;;;;;;;11.32;6.28;;;;;;;;;;5023907;28;20049;-73
2022/03/26 12:25:51;;;;;;;15.48;6.50;;;;;;;;;;5015518;28;20336;-74
2022/03/26 12:28:20;;;;;;;12.25;6.25;;;;;;;;;;5019236;28;20121;-73
2022/03/26 12:30:48;;;;;;;13.07;6.00;;;;;;;;;;5010930;28;20477;-74
2022/03/26 12:33:14;;;;;;;15.73;6.60;;;;;;;;;;5017148;28;20132;-75
2022/03/26 12:35:42;;;;;;;16.85;5.75;;;;;;;;;;5021542;28;20549;-74
2022/03/26 12:38:09;;;;;;;17.50;6.95;;;;;;;;;;5010021;28;20057;-75
2022/03/26 12:40:36;;;;;;;14.20;6.05;;;;;;;;;;5021872;28;20083;-74
2022/03/26 12:43:02;;;;;;;15.65;5.88;;;;;;;;;;5025379;28;20030;-73
2022/03/26 12:45:29;;;;;;;17.55;6.20;;;;;;;;;;5021935;28;20037;-73
2022/03/26 12:47:55;;;;;;;13.88;6.43;;;;;;;;;;5017210;28;20367;-74
2022/03/26 12:50:22;;;;;;;18.88;7.72;;;;;;;;;;5022486;28;20041;-74
2022/03/26 12:52:48;;;;;;;14.55;8.07;;;;;;;;;;5021547;28;20022;-75
2022/03/26 12:55:16;;;;;;;21.35;8.00;;;;;;;;;;5024374;28;20390;-73
2022/03/26 13:00:28;;;;;;;22.98;8.63;;;;;;;;;;5026330;28;20376;-74
2022/03/26 13:03:05;;;;;;;21.08;10.32;;;;;;;;;;5024693;28;20029;-75
2022/03/26 13:05:33;;;;;;;16.98;9.45;;;;;;;;;;5026654;28;20033;-73
2022/03/26 13:07:59;;;;;;;22.60;10.02;;;;;;;;;;5010294;28;20088;-74
2022/03/26 13:10:38;;;;;;;22.60;9.80;;;;;;;;;;5008260;28;20029;-74
2022/03/26 13:13:05;;;;;;;19.75;10.27;;;;;;;;;;5007592;28;20092;-74
2022/03/26 13:15:32;;;;;;;25.38;10.50;;;;;;;;;;5021379;28;20047;-74
2022/03/26 13:18:07;;;;;;;24.73;10.10;;;;;;;;;;5025863;28;20444;-75
2022/03/26 13:20:40;;;;;;;24.90;11.30;;;;;;;;;;5023436;28;20026;-74
2022/03/26 13:23:09;;;;;;;21.50;10.07;;;;;;;;;;5013853;28;20021;-76
2022/03/26 13:25:41;;;;;;;24.77;10.93;;;;;;;;;;5014201;28;20034;-73
2022/03/26 13:28:23;;;;;;;24.40;10.82;;;;;;;;;;5007824;28;20401;-74
2022/03/26 13:30:50;;;;;;;20.52;10.35;;;;;;;;;;5008386;28;20030;-74
2022/03/26 13:33:28;;;;;;;24.80;11.38;;;;;;;;;;5009662;28;20034;-74
2022/03/26 13:35:59;;;;;;;25.98;11.80;;;;;;;;;;5028751;28;20079;-75
2022/03/26 13:38:35;;;;;;;22.63;10.55;;;;;;;;;;5021588;28;20121;-74
2022/03/26 13:41:18;;;;;;;19.92;10.00;;;;;;;;;;5011675;28;20138;-74
2022/03/26 13:43:46;;;;;;;21.58;11.38;;;;;;;;;;5030968;28;20055;-73
2022/03/26 13:46:12;;;;;;;24.58;12.13;;;;;;;;;;5019722;28;20026;-74
2022/03/26 13:49:04;;;;;;;23.48;11.55;;;;;;;;;;5013829;28;20060;-73
2022/03/26 13:51:37;;;;;;;28.23;12.88;;;;;;;;;;5014591;28;20041;-74
2022/03/26 13:54:07;;;;;;;29.27;13.65;;;;;;;;;;5013113;28;20034;-75
2022/03/26 13:56:37;;;;;;;34.88;13.45;;;;;;;;;;5021324;28;20033;-74
2022/03/26 13:59:07;;;;;;;31.50;13.30;;;;;;;;;;5020005;28;20040;-74
2022/03/26 14:01:39;;;;;;;31.00;12.60;;;;;;;;;;5027688;28;20029;-74
2022/03/26 14:04:06;;;;;;;23.95;11.85;;;;;;;;;;5027163;28;20025;-74
2022/03/26 14:06:33;;;;;;;32.70;12.88;;;;;;;;;;5012732;28;20033;-74
2022/03/26 14:09:10;;;;;;;26.15;12.30;;;;;;;;;;5023658;28;20124;-74
2022/03/26 14:11:35;;;;;;;27.40;13.55;;;;;;;;;;5017938;28;20033;-75
2022/03/26 14:14:01;;;;;;;22.00;10.90;;;;;;;;;;5014373;28;20391;-75
2022/03/26 14:16:26;;;;;;;24.35;11.73;;;;;;;;;;5022679;28;20037;-74
2022/03/26 14:18:52;;;;;;;25.48;11.00;;;;;;;;;;5027309;28;20045;-74
2022/03/26 14:21:17;;;;;;;23.98;10.20;;;;;;;;;;5023788;28;20026;-74
2022/03/26 14:23:43;;;;;;;22.63;11.35;;;;;;;;;;5024718;28;20407;-74
2022/03/26 14:26:08;;;;;;;24.17;11.45;;;;;;;;;;5012483;28;20051;-74
2022/03/26 14:28:34;;;;;;;22.10;10.35;;;;;;;;;;5022708;28;20314;-74
2022/03/26 14:30:59;;;;;;;18.77;10.57;;;;;;;;;;5012109;28;20044;-74
2022/03/26 14:33:25;;;;;;;16.88;9.95;;;;;;;;;;5027973;28;20044;-73
2022/03/26 14:35:53;;;;;;;21.75;10.52;;;;;;;;;;5010822;28;20030;-74